createdAt,value
2022-07-26T00:01:20.723Z,21.61
2022-07-26T00:03:49.339Z,21.62
2022-07-26T00:06:16.121Z,21.62
2022-07-26T00:08:45.704Z,21.57
2022-07-26T00:11:12.557Z,21.55
2022-07-26T00:13:39.740Z,21.48
2022-07-26T00:16:06.607Z,21.29
2022-07-26T00:18:33.548Z,21.30
2022-07-26T00:21:00.084Z,21.19
2022-07-26T00:23:27.618Z,21.21
2022-07-26T00:25:54.132Z,21.22
2022-07-26T00:28:20.636Z,21.13
2022-07-26T00:30:47.231Z,20.97
2022-07-26T00:33:13.772Z,21.00
2022-07-26T00:35:40.383Z,20.98
2022-07-26T00:38:06.968Z,20.91
2022-07-26T00:40:34.385Z,20.89
2022-07-26T00:43:00.915Z,20.75
2022-07-26T00:45:27.406Z,20.79
2022-07-26T00:47:53.981Z,20.71
2022-07-26T00:50:20.504Z,20.67
2022-07-26T00:52:49.356Z,20.72
2022-07-26T00:55:16.977Z,20.57
2022-07-26T00:57:44.772Z,20.55
2022-07-26T01:00:15.131Z,20.57
2022-07-26T01:02:41.899Z,20.57
2022-07-26T01:05:08.908Z,20.47
2022-07-26T01:07:37.216Z,20.45
2022-07-26T01:10:06.889Z,20.42
2022-07-26T01:12:33.436Z,20.32
2022-07-26T01:14:59.940Z,20.33
2022-07-26T01:17:26.461Z,20.29
2022-07-26T01:19:52.944Z,20.21
2022-07-26T01:22:19.492Z,20.30
2022-07-26T01:24:45.984Z,20.22
2022-07-26T01:27:12.463Z,20.28
2022-07-26T01:29:39.096Z,20.24
2022-07-26T01:32:06.142Z,20.26
2022-07-26T01:34:32.973Z,20.31
2022-07-26T01:36:59.665Z,20.29
2022-07-26T01:39:26.585Z,20.26
2022-07-26T01:41:54.290Z,20.39
2022-07-26T01:44:20.824Z,20.42
2022-07-26T01:46:47.339Z,20.36
2022-07-26T01:49:14.109Z,20.43
2022-07-26T01:51:40.884Z,20.35
2022-07-26T01:54:07.833Z,20.45
2022-07-26T01:56:35.012Z,20.41
2022-07-26T01:59:01.772Z,20.38
2022-07-26T02:01:38.236Z,20.37
2022-07-26T02:04:29.650Z,20.38
2022-07-26T02:06:56.179Z,20.32
2022-07-26T02:09:22.681Z,20.32
2022-07-26T02:11:49.261Z,20.35
2022-07-26T02:14:25.759Z,20.49
2022-07-26T02:16:59.676Z,20.29
2022-07-26T02:19:28.803Z,20.45
2022-07-26T02:21:55.867Z,20.33
2022-07-26T02:24:22.585Z,20.39
2022-07-26T02:26:49.154Z,20.36
2022-07-26T02:29:15.772Z,20.30
2022-07-26T02:31:42.323Z,20.32
2022-07-26T02:34:15.169Z,20.33
2022-07-26T02:36:41.749Z,20.23
2022-07-26T02:39:08.330Z,20.35
2022-07-26T02:41:34.874Z,20.38
2022-07-26T02:44:01.582Z,20.29
2022-07-26T02:46:28.139Z,20.31
2022-07-26T02:48:54.812Z,20.32
2022-07-26T02:51:21.422Z,20.29
2022-07-26T02:53:47.965Z,20.33
2022-07-26T02:56:14.511Z,20.35
2022-07-26T02:58:41.093Z,20.28
2022-07-26T03:01:08.057Z,20.38
2022-07-26T03:03:36.662Z,20.36
2022-07-26T03:06:05.017Z,20.16
2022-07-26T03:08:31.669Z,20.20
2022-07-26T03:10:58.236Z,20.24
2022-07-26T03:13:24.775Z,20.22
2022-07-26T03:15:51.347Z,20.18
2022-07-26T03:18:17.916Z,20.14
2022-07-26T03:20:44.644Z,20.31
2022-07-26T03:23:11.187Z,20.17
2022-07-26T03:25:38.416Z,20.14
2022-07-26T03:28:05.243Z,20.09
2022-07-26T03:30:31.913Z,20.13
2022-07-26T03:32:58.738Z,20.05
2022-07-26T03:35:25.825Z,19.91
2022-07-26T03:37:52.513Z,19.95
2022-07-26T03:40:19.643Z,19.93
2022-07-26T03:42:47.373Z,19.91
2022-07-26T03:45:15.688Z,19.85
2022-07-26T03:47:43.267Z,19.79
2022-07-26T03:50:11.117Z,19.89
2022-07-26T03:52:37.958Z,19.86
2022-07-26T03:55:24.912Z,19.65
2022-07-26T03:57:51.474Z,19.58
2022-07-26T04:00:18.243Z,19.40
2022-07-26T04:02:44.850Z,19.45
2022-07-26T04:05:11.428Z,19.44
2022-07-26T04:07:52.663Z,19.40
2022-07-26T04:10:20.423Z,19.35
2022-07-26T04:12:46.905Z,19.23
2022-07-26T04:15:13.475Z,19.23
2022-07-26T04:17:41.114Z,18.88
2022-07-26T04:20:10.453Z,18.66
2022-07-26T04:22:38.645Z,18.71
2022-07-26T04:25:06.758Z,18.63
2022-07-26T04:27:33.633Z,18.51
2022-07-26T04:30:00.522Z,18.49
2022-07-26T04:32:27.132Z,18.51
2022-07-26T04:34:53.743Z,18.46
2022-07-26T04:37:20.344Z,18.36
2022-07-26T04:39:50.427Z,18.34
2022-07-26T04:42:19.584Z,18.36
2022-07-26T04:44:46.111Z,18.30
2022-07-26T04:47:12.592Z,18.35
2022-07-26T04:49:40.624Z,18.39
2022-07-26T04:52:07.171Z,18.46
2022-07-26T04:54:33.687Z,18.49
2022-07-26T04:57:00.194Z,18.48
2022-07-26T04:59:26.703Z,18.51
2022-07-26T05:01:53.225Z,18.45
2022-07-26T05:04:19.718Z,18.44
2022-07-26T05:06:46.300Z,18.48
2022-07-26T05:09:12.789Z,18.49
2022-07-26T05:11:39.319Z,18.57
2022-07-26T05:14:06.094Z,18.51
2022-07-26T05:16:33.147Z,18.62
2022-07-26T05:19:00.125Z,18.58
2022-07-26T05:21:28.041Z,18.60
2022-07-26T05:23:55.541Z,18.58
2022-07-26T05:26:22.125Z,18.62
2022-07-26T05:28:48.691Z,18.58
2022-07-26T05:31:15.269Z,18.57
2022-07-26T05:33:42.114Z,18.72
2022-07-26T05:36:09.434Z,18.64
2022-07-26T05:38:35.970Z,18.66
2022-07-26T05:41:02.675Z,18.71
2022-07-26T05:43:41.394Z,18.80
2022-07-26T05:46:09.801Z,18.81
2022-07-26T05:48:36.559Z,18.83
2022-07-26T05:51:03.215Z,18.94
2022-07-26T05:53:29.798Z,18.98
2022-07-26T05:55:56.318Z,19.05
2022-07-26T05:58:22.829Z,19.12
2022-07-26T06:00:49.345Z,19.12
2022-07-26T06:03:25.700Z,19.08
2022-07-26T06:05:55.292Z,19.22
2022-07-26T06:08:22.457Z,19.19
2022-07-26T06:10:49.929Z,19.18
2022-07-26T06:13:17.094Z,19.23
2022-07-26T06:15:45.206Z,19.22
2022-07-26T06:18:11.889Z,19.20
2022-07-26T06:20:40.343Z,19.25
2022-07-26T06:23:07.054Z,19.32
2022-07-26T06:25:34.419Z,19.39
2022-07-26T06:28:05.588Z,19.32
2022-07-26T06:30:32.147Z,19.30
2022-07-26T06:32:58.667Z,19.31
2022-07-26T06:35:25.437Z,19.41
2022-07-26T06:37:51.942Z,19.58
2022-07-26T06:40:18.436Z,19.63
2022-07-26T06:42:44.999Z,19.72
2022-07-26T06:45:11.525Z,19.88
2022-07-26T06:47:38.030Z,19.82
2022-07-26T06:50:05.426Z,19.93
2022-07-26T06:52:32.892Z,19.76
2022-07-26T06:55:00.346Z,19.87
2022-07-26T06:57:27.186Z,19.89
2022-07-26T06:59:54.015Z,19.96
2022-07-26T07:02:21.014Z,20.10
2022-07-26T07:04:47.619Z,20.04
2022-07-26T07:07:14.222Z,20.07
2022-07-26T07:09:41.257Z,20.29
2022-07-26T07:12:09.790Z,20.32
2022-07-26T07:14:38.117Z,20.18
2022-07-26T07:17:11.184Z,20.34
2022-07-26T07:19:40.733Z,20.41
2022-07-26T07:22:11.605Z,20.66
2022-07-26T07:24:38.866Z,20.81
2022-07-26T07:27:05.951Z,20.78
2022-07-26T07:29:33.439Z,20.86
2022-07-26T07:32:00.428Z,20.81
2022-07-26T07:34:30.137Z,20.74
2022-07-26T07:36:57.639Z,20.89
2022-07-26T07:39:24.281Z,20.90
2022-07-26T07:42:01.233Z,20.94
2022-07-26T07:44:27.829Z,21.21
2022-07-26T07:46:54.446Z,21.24
2022-07-26T07:49:22.200Z,21.25
2022-07-26T07:51:48.859Z,21.32
2022-07-26T07:54:16.107Z,21.42
2022-07-26T07:56:43.265Z,21.67
2022-07-26T07:59:10.681Z,21.57
2022-07-26T08:01:40.052Z,21.35
2022-07-26T08:04:08.225Z,21.65
2022-07-26T08:06:34.823Z,21.77
2022-07-26T08:09:01.392Z,21.75
2022-07-26T08:11:30.438Z,21.92
2022-07-26T08:13:57.063Z,22.06
2022-07-26T08:16:24.640Z,22.16
2022-07-26T08:18:57.088Z,22.14
2022-07-26T08:21:28.067Z,22.30
2022-07-26T08:23:56.872Z,22.40
2022-07-26T08:26:23.794Z,22.47
2022-07-26T08:28:59.921Z,22.44
2022-07-26T08:31:28.217Z,22.62
2022-07-26T08:33:54.946Z,22.56
2022-07-26T08:36:21.525Z,22.65
2022-07-26T08:38:48.611Z,22.43
2022-07-26T08:41:17.105Z,22.53
2022-07-26T08:43:53.138Z,22.59
2022-07-26T08:46:25.760Z,22.63
2022-07-26T08:48:53.754Z,22.77
2022-07-26T08:51:22.909Z,22.64
2022-07-26T08:53:53.426Z,22.79
2022-07-26T08:56:19.981Z,22.98
2022-07-26T08:58:46.514Z,22.67
2022-07-26T09:01:13.506Z,22.65
2022-07-26T09:03:44.332Z,23.11
2022-07-26T09:06:21.920Z,22.88
2022-07-26T09:08:53.046Z,23.05
2022-07-26T09:11:33.132Z,23.32
2022-07-26T09:14:05.113Z,23.25
2022-07-26T09:16:36.033Z,22.88
2022-07-26T09:19:18.988Z,22.69
2022-07-26T09:21:46.662Z,22.77
2022-07-26T09:24:29.127Z,22.82
2022-07-26T09:27:00.601Z,23.12
2022-07-26T09:29:29.027Z,23.40
2022-07-26T09:32:16.867Z,23.65
2022-07-26T09:34:52.657Z,23.37
2022-07-26T09:37:37.514Z,23.52
2022-07-26T09:40:08.267Z,23.64
2022-07-26T09:42:35.197Z,23.78
2022-07-26T09:45:02.483Z,23.70
2022-07-26T09:47:36.995Z,24.17
2022-07-26T09:50:15.854Z,24.22
2022-07-26T09:53:08.963Z,24.17
2022-07-26T09:55:57.178Z,23.84
2022-07-26T09:58:24.967Z,23.98
2022-07-26T10:00:51.788Z,24.17
2022-07-26T10:03:18.449Z,24.30
2022-07-26T10:05:45.062Z,24.32
2022-07-26T10:08:12.704Z,24.32
2022-07-26T10:10:46.486Z,24.19
2022-07-26T10:13:13.877Z,24.05
2022-07-26T10:15:46.866Z,23.85
2022-07-26T10:18:38.506Z,23.49
2022-07-26T10:21:30.506Z,23.25
2022-07-26T10:24:01.873Z,23.10
2022-07-26T10:26:31.347Z,22.96
2022-07-26T10:29:19.133Z,22.73
2022-07-26T10:32:08.031Z,22.67
2022-07-26T10:34:37.498Z,22.59
2022-07-26T10:37:07.625Z,22.50
2022-07-26T10:39:34.691Z,22.43
2022-07-26T10:42:09.979Z,22.38
2022-07-26T10:44:39.552Z,22.33
2022-07-26T10:47:09.079Z,22.28
2022-07-26T10:49:38.471Z,22.28
2022-07-26T10:52:20.232Z,22.26
2022-07-26T10:55:04.846Z,22.26
2022-07-26T10:57:34.314Z,22.30
2022-07-26T11:00:02.098Z,22.25
2022-07-26T11:02:32.504Z,22.23
2022-07-26T11:05:03.075Z,22.21
2022-07-26T11:07:30.065Z,22.20
2022-07-26T11:10:00.794Z,22.10
2022-07-26T11:12:27.581Z,22.18
2022-07-26T11:14:54.383Z,22.23
2022-07-26T11:17:29.354Z,22.39
2022-07-26T11:19:56.945Z,22.48
2022-07-26T11:22:31.968Z,22.55
2022-07-26T11:24:58.554Z,22.38
2022-07-26T11:27:25.092Z,22.32
2022-07-26T11:29:51.633Z,22.32
2022-07-26T11:32:25.116Z,22.41
2022-07-26T11:35:02.919Z,22.55
2022-07-26T11:37:29.915Z,22.66
2022-07-26T11:39:56.844Z,23.00
2022-07-26T11:42:23.428Z,23.31
2022-07-26T11:44:50.545Z,23.70
2022-07-26T11:47:25.564Z,24.19
2022-07-26T11:52:40.225Z,24.58
2022-07-26T11:55:07.494Z,24.87
2022-07-26T11:57:34.040Z,25.41
2022-07-26T12:00:01.527Z,25.75
2022-07-26T12:02:30.271Z,25.90
2022-07-26T12:05:19.248Z,25.90
2022-07-26T12:08:03.896Z,26.68
2022-07-26T12:10:30.627Z,27.13
2022-07-26T12:13:15.420Z,26.96
2022-07-26T12:15:50.628Z,27.07
2022-07-26T12:18:35.276Z,27.45
2022-07-26T12:21:07.436Z,28.22
2022-07-26T12:23:45.820Z,28.65
2022-07-26T12:26:30.662Z,29.18
2022-07-26T12:28:59.712Z,29.48
2022-07-26T12:31:31.056Z,29.57
2022-07-26T12:33:58.897Z,29.79
2022-07-26T12:36:27.713Z,29.58
2022-07-26T12:38:56.687Z,29.45
2022-07-26T12:41:33.314Z,28.90
2022-07-26T12:43:59.988Z,28.76
2022-07-26T12:46:26.734Z,28.93
2022-07-26T12:48:56.807Z,28.86
2022-07-26T12:51:26.722Z,28.70
2022-07-26T12:53:53.260Z,29.16
2022-07-26T12:56:19.734Z,29.56
2022-07-26T12:58:46.183Z,29.83
2022-07-26T13:01:12.972Z,29.84
2022-07-26T13:03:39.600Z,29.26
2022-07-26T13:06:06.726Z,28.02
2022-07-26T13:08:33.281Z,27.38
2022-07-26T13:11:00.268Z,27.73
2022-07-26T13:13:26.924Z,27.64
2022-07-26T13:15:53.427Z,27.48
2022-07-26T13:18:19.961Z,27.34
2022-07-26T13:20:46.466Z,27.24
2022-07-26T13:23:15.812Z,27.32
2022-07-26T13:25:48.601Z,27.28
2022-07-26T13:28:17.362Z,26.80
2022-07-26T13:30:45.080Z,27.02
2022-07-26T13:33:12.404Z,27.42
2022-07-26T13:35:41.331Z,27.82
2022-07-26T13:38:09.014Z,27.91
2022-07-26T13:40:36.118Z,28.10
2022-07-26T13:43:02.947Z,28.64
2022-07-26T13:45:29.847Z,29.27
2022-07-26T13:47:59.080Z,29.76
2022-07-26T13:50:27.332Z,30.40
2022-07-26T13:52:56.210Z,30.98
2022-07-26T13:55:23.227Z,31.00
2022-07-26T13:57:55.978Z,30.31
2022-07-26T14:00:24.548Z,29.84
2022-07-26T14:02:51.169Z,29.19
2022-07-26T14:05:18.743Z,28.52
2022-07-26T14:07:45.553Z,28.02
2022-07-26T14:10:12.096Z,27.71
2022-07-26T14:12:38.735Z,27.52
2022-07-26T14:15:12.010Z,27.58
2022-07-26T14:17:40.648Z,27.64
2022-07-26T14:20:07.872Z,27.70
2022-07-26T14:22:34.353Z,27.75
2022-07-26T14:25:00.921Z,28.21
2022-07-26T14:27:27.618Z,28.49
2022-07-26T14:29:54.167Z,28.45
2022-07-26T14:32:22.142Z,28.44
2022-07-26T14:34:49.554Z,28.19
2022-07-26T14:37:44.158Z,28.18
2022-07-26T14:40:04.851Z,27.93
2022-07-26T14:42:31.382Z,27.77
2022-07-26T14:44:57.930Z,27.58
2022-07-26T14:47:24.499Z,27.30
2022-07-26T14:49:51.062Z,27.17
2022-07-26T14:52:17.656Z,27.04
2022-07-26T14:54:44.230Z,26.82
2022-07-26T14:57:10.740Z,26.52
2022-07-26T14:59:37.251Z,26.24
2022-07-26T15:02:05.850Z,26.10
2022-07-26T15:04:32.868Z,26.05
2022-07-26T15:06:59.796Z,25.60
2022-07-26T15:09:26.316Z,25.40
2022-07-26T15:11:53.098Z,25.39
2022-07-26T15:14:19.673Z,25.32
2022-07-26T15:16:46.439Z,25.30
2022-07-26T15:19:13.013Z,25.38
2022-07-26T15:21:39.664Z,25.38
2022-07-26T15:24:06.553Z,25.15
2022-07-26T15:26:33.137Z,25.06
2022-07-26T15:28:59.717Z,24.88
2022-07-26T15:31:37.168Z,24.71
2022-07-26T15:34:07.550Z,24.79
2022-07-26T15:36:34.579Z,24.80
2022-07-26T15:39:14.716Z,24.91
2022-07-26T15:41:43.764Z,25.07
2022-07-26T15:44:12.255Z,25.14
2022-07-26T15:46:39.900Z,25.04
2022-07-26T15:49:07.549Z,25.14
2022-07-26T15:51:34.389Z,25.20
2022-07-26T15:54:03.052Z,25.15
2022-07-26T15:56:29.949Z,25.08
2022-07-26T15:58:56.610Z,25.04
2022-07-26T16:01:23.326Z,24.99
2022-07-26T16:03:50.565Z,24.85
2022-07-26T16:06:18.223Z,24.82
2022-07-26T16:09:05.937Z,24.71
2022-07-26T16:11:31.822Z,24.71
2022-07-26T16:14:00.922Z,24.71
2022-07-26T16:16:29.337Z,24.63
2022-07-26T16:18:56.028Z,24.47
2022-07-26T16:21:22.561Z,24.37
2022-07-26T16:23:50.822Z,24.36
2022-07-26T16:26:17.922Z,24.29
2022-07-26T16:28:44.533Z,24.14
2022-07-26T16:31:11.156Z,24.01
2022-07-26T16:33:37.851Z,23.85
2022-07-26T16:36:12.442Z,23.62
2022-07-26T16:38:39.010Z,23.44
2022-07-26T16:41:07.371Z,23.34
2022-07-26T16:43:34.596Z,23.16
2022-07-26T16:46:01.498Z,23.06
2022-07-26T16:48:28.185Z,22.89
2022-07-26T16:50:54.829Z,22.54
2022-07-26T16:53:21.430Z,22.40
2022-07-26T16:55:49.694Z,22.30
2022-07-26T16:58:16.575Z,22.30
2022-07-26T17:00:43.476Z,22.30
2022-07-26T17:03:10.237Z,22.36
2022-07-26T17:05:36.829Z,22.44
2022-07-26T17:08:03.493Z,22.45
2022-07-26T17:10:30.056Z,22.54
2022-07-26T17:12:56.618Z,22.71
2022-07-26T17:15:23.138Z,22.69
2022-07-26T17:17:49.796Z,22.87
2022-07-26T17:20:16.936Z,22.86
2022-07-26T17:22:43.511Z,22.82
2022-07-26T17:25:10.240Z,22.73
2022-07-26T17:27:36.963Z,22.72
2022-07-26T17:30:07.092Z,22.73
2022-07-26T17:32:34.380Z,22.67
2022-07-26T17:35:01.057Z,22.73
2022-07-26T17:37:27.658Z,22.74
2022-07-26T17:39:55.333Z,22.70
2022-07-26T17:42:24.289Z,22.70
2022-07-26T17:44:51.208Z,22.67
2022-07-26T17:47:29.089Z,22.65
2022-07-26T17:50:08.925Z,22.62
2022-07-26T17:52:45.315Z,22.59
2022-07-26T17:55:12.027Z,22.55
2022-07-26T17:57:38.589Z,22.53
2022-07-26T18:00:06.715Z,22.56
2022-07-26T18:02:33.525Z,22.50
2022-07-26T18:05:00.269Z,22.43
2022-07-26T18:07:27.095Z,22.48
2022-07-26T18:09:53.585Z,22.51
2022-07-26T18:12:20.372Z,22.38
2022-07-26T18:14:46.884Z,22.33
2022-07-26T18:17:13.427Z,22.25
2022-07-26T18:19:40.006Z,22.22
2022-07-26T18:22:06.598Z,22.16
2022-07-26T18:24:33.220Z,22.08
2022-07-26T18:26:59.760Z,22.15
2022-07-26T18:29:26.340Z,22.04
2022-07-26T18:31:52.927Z,22.03
2022-07-26T18:34:19.522Z,22.09
2022-07-26T18:36:46.113Z,22.12
2022-07-26T18:39:13.051Z,22.16
2022-07-26T18:41:39.809Z,22.10
2022-07-26T18:44:06.345Z,22.06
2022-07-26T18:46:33.684Z,21.97
2022-07-26T18:49:00.614Z,21.85
2022-07-26T18:51:29.188Z,21.80
2022-07-26T18:53:58.277Z,21.71
2022-07-26T18:56:24.913Z,21.61
2022-07-26T18:58:51.514Z,21.63
2022-07-26T19:01:18.268Z,21.50
2022-07-26T19:03:44.910Z,21.49
2022-07-26T19:06:13.076Z,21.55
2022-07-26T19:08:39.664Z,21.62
2022-07-26T19:11:06.333Z,21.63
2022-07-26T19:13:32.915Z,21.64
2022-07-26T19:15:59.462Z,21.67
2022-07-26T19:18:25.984Z,21.69
2022-07-26T19:20:52.476Z,21.62
2022-07-26T19:23:19.072Z,21.63
2022-07-26T19:25:46.387Z,21.64
2022-07-26T19:28:13.787Z,21.61
2022-07-26T19:30:40.494Z,21.58
2022-07-26T19:33:07.268Z,21.56
2022-07-26T19:35:33.747Z,21.51
2022-07-26T19:38:00.403Z,21.46
2022-07-26T19:40:27.031Z,21.44
2022-07-26T19:42:53.585Z,21.47
2022-07-26T19:45:20.127Z,21.45
2022-07-26T19:47:46.735Z,21.42
2022-07-26T19:50:13.512Z,21.42
2022-07-26T19:52:40.790Z,21.39
2022-07-26T19:55:08.189Z,21.34
2022-07-26T19:57:34.817Z,21.32
2022-07-26T20:00:03.013Z,21.32
2022-07-26T20:02:29.772Z,21.27
2022-07-26T20:04:56.366Z,21.22
2022-07-26T20:07:22.939Z,21.10
2022-07-26T20:09:50.589Z,21.15
2022-07-26T20:12:18.542Z,21.16
2022-07-26T20:14:45.381Z,21.17
2022-07-26T20:17:13.262Z,21.11
2022-07-26T20:19:40.457Z,21.08
2022-07-26T20:22:07.071Z,21.04
2022-07-26T20:24:34.433Z,20.98
2022-07-26T20:27:00.919Z,20.90
2022-07-26T20:29:27.564Z,20.89
2022-07-26T20:31:54.095Z,20.84
2022-07-26T20:34:20.596Z,20.81
2022-07-26T20:36:47.305Z,20.76
2022-07-26T20:39:15.055Z,20.75
2022-07-26T20:41:41.794Z,20.74
2022-07-26T20:44:08.432Z,20.73
2022-07-26T20:46:39.994Z,20.68
2022-07-26T20:49:08.022Z,20.65
2022-07-26T20:51:34.808Z,20.62
2022-07-26T20:54:01.418Z,20.59
2022-07-26T20:56:29.123Z,20.56
2022-07-26T20:58:55.689Z,20.51
2022-07-26T21:01:22.470Z,20.50
2022-07-26T21:03:48.983Z,20.48
2022-07-26T21:06:15.679Z,20.44
2022-07-26T21:08:42.201Z,20.49
2022-07-26T21:11:08.690Z,20.41
2022-07-26T21:13:35.199Z,20.35
2022-07-26T21:16:01.801Z,20.30
2022-07-26T21:18:32.669Z,20.29
2022-07-26T21:21:01.652Z,20.23
2022-07-26T21:23:28.212Z,20.18
2022-07-26T21:25:58.096Z,20.09
2022-07-26T21:28:27.300Z,20.04
2022-07-26T21:30:54.143Z,20.04
2022-07-26T21:33:20.869Z,20.05
2022-07-26T21:35:47.381Z,20.02
2022-07-26T21:38:14.077Z,19.98
2022-07-26T21:40:40.632Z,19.94
2022-07-26T21:43:07.249Z,19.84
2022-07-26T21:45:33.876Z,19.80
2022-07-26T21:48:00.481Z,19.77
2022-07-26T21:50:27.847Z,19.77
2022-07-26T21:52:54.329Z,19.71
2022-07-26T21:55:20.937Z,19.72
2022-07-26T21:57:47.988Z,19.71
2022-07-26T22:00:16.275Z,19.69
2022-07-26T22:02:42.845Z,19.66
2022-07-26T22:05:28.167Z,19.67
2022-07-26T22:07:55.140Z,19.70
2022-07-26T22:10:21.809Z,19.68
2022-07-26T22:12:48.295Z,19.59
2022-07-26T22:15:14.837Z,19.59
2022-07-26T22:17:41.505Z,19.61
2022-07-26T22:20:09.071Z,19.55
2022-07-26T22:22:36.686Z,19.53
2022-07-26T22:25:04.768Z,19.52
2022-07-26T22:27:31.300Z,19.47
2022-07-26T22:29:57.801Z,19.40
2022-07-26T22:32:24.415Z,19.37
2022-07-26T22:34:50.910Z,19.34
2022-07-26T22:37:17.488Z,19.30
2022-07-26T22:39:44.021Z,19.25
2022-07-26T22:42:15.786Z,19.26
2022-07-26T22:44:42.893Z,19.24
2022-07-26T22:47:09.410Z,19.24
2022-07-26T22:49:36.028Z,19.21
2022-07-26T22:52:02.662Z,19.15
2022-07-26T22:54:29.230Z,19.13
2022-07-26T22:56:55.920Z,19.12
2022-07-26T22:59:22.794Z,19.06
2022-07-26T23:01:49.370Z,19.06
2022-07-26T23:04:16.098Z,19.03
2022-07-26T23:06:43.002Z,19.00
2022-07-26T23:09:11.508Z,18.94
2022-07-26T23:11:38.373Z,18.94
2022-07-26T23:14:05.083Z,18.91
2022-07-26T23:16:31.787Z,18.77
2022-07-26T23:18:58.359Z,18.74
2022-07-26T23:21:25.320Z,18.76
2022-07-26T23:23:51.810Z,18.76
2022-07-26T23:26:18.306Z,18.69
2022-07-26T23:28:44.791Z,18.67
2022-07-26T23:31:14.352Z,18.62
2022-07-26T23:33:53.326Z,18.59
2022-07-26T23:36:30.105Z,18.56
2022-07-26T23:38:58.967Z,18.46
2022-07-26T23:41:26.666Z,18.40
2022-07-26T23:43:54.434Z,18.34
2022-07-26T23:46:21.743Z,18.36
2022-07-26T23:48:48.466Z,18.33
2022-07-26T23:51:15.367Z,18.29
2022-07-26T23:53:42.063Z,18.23
2022-07-26T23:56:08.706Z,18.14
2022-07-26T23:58:35.292Z,18.13
